sensor_id;sensor_type;location;lat;lon;timestamp;P1;durP1;ratioP1;P2;durP2;ratioP2
50781;SDS011;36749;37.428;-121.972;2024-02-21T00:01:05;2.00;;;1.23;;
50781;SDS011;36749;37.428;-121.972;2024-02-21T00:03:31;3.38;;;1.85;;
50781;SDS011;36749;37.428;-121.972;2024-02-21T00:05:57;8.13;;;1.75;;
50781;SDS011;36749;37.428;-121.972;2024-02-21T00:08:24;5.28;;;1.80;;
50781;SDS011;36749;37.428;-121.972;2024-02-21T00:10:50;1.92;;;1.60;;
50781;SDS011;36749;37.428;-121.972;2024-02-21T00:13:16;7.10;;;2.25;;
50781;SDS011;36749;37.428;-121.972;2024-02-21T00:15:43;3.38;;;1.50;;
50781;SDS011;36749;37.428;-121.972;2024-02-21T00:18:09;6.70;;;1.80;;
50781;SDS011;36749;37.428;-121.972;2024-02-21T00:20:36;4.20;;;1.55;;
50781;SDS011;36749;37.428;-121.972;2024-02-21T00:23:02;3.38;;;1.23;;
50781;SDS011;36749;37.428;-121.972;2024-02-21T00:25:28;4.32;;;1.52;;
50781;SDS011;36749;37.428;-121.972;2024-02-21T00:27:54;2.63;;;1.30;;
50781;SDS011;36749;37.428;-121.972;2024-02-21T00:30:21;2.80;;;1.50;;
50781;SDS011;36749;37.428;-121.972;2024-02-21T00:32:47;4.38;;;1.27;;
50781;SDS011;36749;37.428;-121.972;2024-02-21T00:35:13;5.25;;;1.42;;
50781;SDS011;36749;37.428;-121.972;2024-02-21T00:37:40;3.97;;;1.63;;
50781;SDS011;36749;37.428;-121.972;2024-02-21T00:40:06;4.82;;;1.40;;
50781;SDS011;36749;37.428;-121.972;2024-02-21T00:42:32;2.63;;;1.60;;
50781;SDS011;36749;37.428;-121.972;2024-02-21T00:44:59;2.90;;;1.85;;
50781;SDS011;36749;37.428;-121.972;2024-02-21T00:47:25;4.25;;;1.45;;
50781;SDS011;36749;37.428;-121.972;2024-02-21T00:49:51;5.07;;;1.80;;
50781;SDS011;36749;37.428;-121.972;2024-02-21T00:52:17;4.07;;;1.33;;
50781;SDS011;36749;37.428;-121.972;2024-02-21T00:54:43;2.78;;;1.60;;
50781;SDS011;36749;37.428;-121.972;2024-02-21T00:57:10;3.70;;;1.50;;
50781;SDS011;36749;37.428;-121.972;2024-02-21T00:59:37;2.25;;;1.40;;
50781;SDS011;36749;37.428;-121.972;2024-02-21T01:02:03;4.55;;;1.50;;
50781;SDS011;36749;37.428;-121.972;2024-02-21T01:04:29;2.92;;;1.48;;
50781;SDS011;36749;37.428;-121.972;2024-02-21T01:06:56;3.28;;;1.25;;
50781;SDS011;36749;37.428;-121.972;2024-02-21T01:09:22;3.08;;;1.58;;
50781;SDS011;36749;37.428;-121.972;2024-02-21T01:11:48;5.72;;;1.83;;
50781;SDS011;36749;37.428;-121.972;2024-02-21T01:14:14;5.18;;;1.55;;
50781;SDS011;36749;37.428;-121.972;2024-02-21T01:16:40;6.78;;;1.70;;
50781;SDS011;36749;37.428;-121.972;2024-02-21T01:19:06;5.88;;;2.10;;
50781;SDS011;36749;37.428;-121.972;2024-02-21T01:21:52;4.75;;;1.70;;
50781;SDS011;36749;37.428;-121.972;2024-02-21T01:24:19;3.25;;;1.50;;
50781;SDS011;36749;37.428;-121.972;2024-02-21T01:26:45;5.97;;;1.38;;
50781;SDS011;36749;37.428;-121.972;2024-02-21T01:29:11;6.63;;;1.98;;
50781;SDS011;36749;37.428;-121.972;2024-02-21T01:31:38;4.20;;;1.63;;
50781;SDS011;36749;37.428;-121.972;2024-02-21T01:34:04;6.97;;;1.90;;
50781;SDS011;36749;37.428;-121.972;2024-02-21T01:36:30;4.15;;;1.70;;
50781;SDS011;36749;37.428;-121.972;2024-02-21T01:38:57;8.07;;;1.92;;
50781;SDS011;36749;37.428;-121.972;2024-02-21T01:41:23;4.65;;;2.08;;
50781;SDS011;36749;37.428;-121.972;2024-02-21T01:43:49;8.57;;;2.35;;
50781;SDS011;36749;37.428;-121.972;2024-02-21T01:46:16;7.60;;;2.28;;
50781;SDS011;36749;37.428;-121.972;2024-02-21T01:48:42;6.63;;;2.10;;
50781;SDS011;36749;37.428;-121.972;2024-02-21T01:51:08;5.68;;;2.20;;
50781;SDS011;36749;37.428;-121.972;2024-02-21T01:53:38;8.95;;;2.45;;
50781;SDS011;36749;37.428;-121.972;2024-02-21T01:56:08;7.07;;;2.35;;
50781;SDS011;36749;37.428;-121.972;2024-02-21T01:58:36;7.28;;;2.85;;
50781;SDS011;36749;37.428;-121.972;2024-02-21T02:01:03;5.00;;;2.00;;
50781;SDS011;36749;37.428;-121.972;2024-02-21T02:03:29;4.00;;;2.47;;
50781;SDS011;36749;37.428;-121.972;2024-02-21T02:05:55;7.65;;;2.70;;
50781;SDS011;36749;37.428;-121.972;2024-02-21T02:08:21;7.75;;;2.08;;
50781;SDS011;36749;37.428;-121.972;2024-02-21T02:10:48;6.97;;;2.28;;
50781;SDS011;36749;37.428;-121.972;2024-02-21T02:13:14;9.48;;;2.33;;
50781;SDS011;36749;37.428;-121.972;2024-02-21T02:15:41;9.13;;;2.47;;
50781;SDS011;36749;37.428;-121.972;2024-02-21T02:18:08;9.38;;;2.45;;
50781;SDS011;36749;37.428;-121.972;2024-02-21T02:20:35;5.45;;;2.20;;
50781;SDS011;36749;37.428;-121.972;2024-02-21T02:23:07;4.38;;;2.10;;
50781;SDS011;36749;37.428;-121.972;2024-02-21T02:25:34;5.32;;;2.35;;
50781;SDS011;36749;37.428;-121.972;2024-02-21T02:28:01;6.30;;;2.20;;
50781;SDS011;36749;37.428;-121.972;2024-02-21T02:30:27;7.93;;;3.20;;
50781;SDS011;36749;37.428;-121.972;2024-02-21T02:32:54;8.30;;;2.20;;
50781;SDS011;36749;37.428;-121.972;2024-02-21T02:35:20;8.07;;;2.70;;
50781;SDS011;36749;37.428;-121.972;2024-02-21T02:37:49;9.82;;;2.95;;
50781;SDS011;36749;37.428;-121.972;2024-02-21T02:40:16;8.50;;;3.30;;
50781;SDS011;36749;37.428;-121.972;2024-02-21T02:42:43;10.20;;;2.65;;
50781;SDS011;36749;37.428;-121.972;2024-02-21T02:45:09;10.18;;;3.10;;
50781;SDS011;36749;37.428;-121.972;2024-02-21T02:47:36;6.43;;;2.15;;
50781;SDS011;36749;37.428;-121.972;2024-02-21T02:50:02;9.68;;;2.65;;
50781;SDS011;36749;37.428;-121.972;2024-02-21T02:52:28;7.93;;;2.50;;
50781;SDS011;36749;37.428;-121.972;2024-02-21T02:54:54;8.93;;;2.95;;
50781;SDS011;36749;37.428;-121.972;2024-02-21T02:57:21;5.50;;;2.28;;
50781;SDS011;36749;37.428;-121.972;2024-02-21T02:59:50;10.85;;;2.55;;
50781;SDS011;36749;37.428;-121.972;2024-02-21T03:02:17;7.55;;;2.85;;
50781;SDS011;36749;37.428;-121.972;2024-02-21T03:04:43;10.98;;;3.47;;
50781;SDS011;36749;37.428;-121.972;2024-02-21T03:07:10;9.60;;;2.83;;
50781;SDS011;36749;37.428;-121.972;2024-02-21T03:09:39;8.10;;;2.60;;
50781;SDS011;36749;37.428;-121.972;2024-02-21T03:12:08;10.60;;;3.15;;
50781;SDS011;36749;37.428;-121.972;2024-02-21T03:14:35;5.72;;;2.72;;
50781;SDS011;36749;37.428;-121.972;2024-02-21T03:17:01;10.05;;;3.47;;
50781;SDS011;36749;37.428;-121.972;2024-02-21T03:19:28;10.60;;;3.78;;
50781;SDS011;36749;37.428;-121.972;2024-02-21T03:21:55;9.63;;;2.78;;
50781;SDS011;36749;37.428;-121.972;2024-02-21T03:24:21;8.48;;;2.92;;
50781;SDS011;36749;37.428;-121.972;2024-02-21T03:26:47;7.22;;;3.03;;
50781;SDS011;36749;37.428;-121.972;2024-02-21T03:29:16;9.23;;;3.13;;
50781;SDS011;36749;37.428;-121.972;2024-02-21T03:31:43;7.32;;;2.90;;
50781;SDS011;36749;37.428;-121.972;2024-02-21T03:34:12;6.75;;;2.80;;
50781;SDS011;36749;37.428;-121.972;2024-02-21T03:36:38;8.93;;;2.88;;
50781;SDS011;36749;37.428;-121.972;2024-02-21T03:39:04;10.77;;;2.70;;
50781;SDS011;36749;37.428;-121.972;2024-02-21T03:41:30;7.85;;;2.88;;
50781;SDS011;36749;37.428;-121.972;2024-02-21T03:43:57;9.40;;;3.05;;
50781;SDS011;36749;37.428;-121.972;2024-02-21T03:46:23;9.00;;;3.20;;
50781;SDS011;36749;37.428;-121.972;2024-02-21T03:48:50;7.70;;;2.75;;
50781;SDS011;36749;37.428;-121.972;2024-02-21T03:51:16;9.30;;;2.92;;
50781;SDS011;36749;37.428;-121.972;2024-02-21T03:53:43;7.70;;;3.25;;
50781;SDS011;36749;37.428;-121.972;2024-02-21T03:56:09;8.85;;;2.65;;
50781;SDS011;36749;37.428;-121.972;2024-02-21T03:58:35;12.30;;;3.30;;
50781;SDS011;36749;37.428;-121.972;2024-02-21T04:01:01;8.57;;;2.50;;
50781;SDS011;36749;37.428;-121.972;2024-02-21T04:03:28;9.15;;;2.60;;
50781;SDS011;36749;37.428;-121.972;2024-02-21T04:05:56;10.95;;;3.20;;
50781;SDS011;36749;37.428;-121.972;2024-02-21T04:08:22;8.13;;;2.95;;
50781;SDS011;36749;37.428;-121.972;2024-02-21T04:10:49;12.75;;;3.58;;
50781;SDS011;36749;37.428;-121.972;2024-02-21T04:13:15;13.18;;;3.72;;
50781;SDS011;36749;37.428;-121.972;2024-02-21T04:15:41;13.40;;;4.55;;
50781;SDS011;36749;37.428;-121.972;2024-02-21T04:18:07;9.65;;;5.32;;
50781;SDS011;36749;37.428;-121.972;2024-02-21T04:20:34;20.85;;;14.57;;
50781;SDS011;36749;37.428;-121.972;2024-02-21T04:23:01;19.95;;;13.45;;
50781;SDS011;36749;37.428;-121.972;2024-02-21T04:25:27;17.30;;;10.07;;
50781;SDS011;36749;37.428;-121.972;2024-02-21T04:27:54;16.85;;;7.40;;
50781;SDS011;36749;37.428;-121.972;2024-02-21T04:30:20;11.05;;;6.35;;
50781;SDS011;36749;37.428;-121.972;2024-02-21T04:32:46;12.00;;;5.32;;
50781;SDS011;36749;37.428;-121.972;2024-02-21T04:35:12;9.82;;;4.10;;
50781;SDS011;36749;37.428;-121.972;2024-02-21T04:37:38;8.00;;;4.47;;
50781;SDS011;36749;37.428;-121.972;2024-02-21T04:40:05;12.20;;;3.85;;
50781;SDS011;36749;37.428;-121.972;2024-02-21T04:42:32;6.97;;;3.28;;
50781;SDS011;36749;37.428;-121.972;2024-02-21T04:44:58;11.65;;;4.18;;
50781;SDS011;36749;37.428;-121.972;2024-02-21T04:47:24;8.50;;;4.10;;
50781;SDS011;36749;37.428;-121.972;2024-02-21T04:49:50;7.63;;;3.65;;
50781;SDS011;36749;37.428;-121.972;2024-02-21T04:52:17;8.23;;;3.58;;
50781;SDS011;36749;37.428;-121.972;2024-02-21T04:54:43;8.88;;;3.30;;
50781;SDS011;36749;37.428;-121.972;2024-02-21T04:57:09;9.18;;;3.75;;
50781;SDS011;36749;37.428;-121.972;2024-02-21T04:59:44;8.73;;;3.33;;
50781;SDS011;36749;37.428;-121.972;2024-02-21T05:02:13;7.95;;;3.35;;
50781;SDS011;36749;37.428;-121.972;2024-02-21T05:04:40;9.23;;;3.63;;
50781;SDS011;36749;37.428;-121.972;2024-02-21T05:07:07;9.77;;;3.42;;
50781;SDS011;36749;37.428;-121.972;2024-02-21T05:09:33;10.75;;;3.40;;
50781;SDS011;36749;37.428;-121.972;2024-02-21T05:11:59;7.75;;;3.33;;
50781;SDS011;36749;37.428;-121.972;2024-02-21T05:14:26;9.30;;;3.30;;
50781;SDS011;36749;37.428;-121.972;2024-02-21T05:16:52;10.73;;;3.13;;
50781;SDS011;36749;37.428;-121.972;2024-02-21T05:19:18;8.70;;;2.83;;
50781;SDS011;36749;37.428;-121.972;2024-02-21T05:21:45;9.30;;;3.35;;
50781;SDS011;36749;37.428;-121.972;2024-02-21T05:24:11;9.80;;;3.13;;
50781;SDS011;36749;37.428;-121.972;2024-02-21T05:26:38;9.02;;;3.25;;
50781;SDS011;36749;37.428;-121.972;2024-02-21T05:29:04;9.30;;;3.30;;
50781;SDS011;36749;37.428;-121.972;2024-02-21T05:31:42;9.00;;;3.28;;
50781;SDS011;36749;37.428;-121.972;2024-02-21T05:34:28;9.75;;;3.05;;
50781;SDS011;36749;37.428;-121.972;2024-02-21T05:36:55;12.15;;;3.65;;
50781;SDS011;36749;37.428;-121.972;2024-02-21T05:39:22;9.43;;;3.22;;
50781;SDS011;36749;37.428;-121.972;2024-02-21T05:41:49;10.18;;;3.15;;
50781;SDS011;36749;37.428;-121.972;2024-02-21T05:44:16;8.85;;;3.00;;
50781;SDS011;36749;37.428;-121.972;2024-02-21T05:46:42;7.30;;;3.20;;
50781;SDS011;36749;37.428;-121.972;2024-02-21T05:49:08;6.13;;;3.03;;
50781;SDS011;36749;37.428;-121.972;2024-02-21T05:51:35;12.55;;;3.78;;
50781;SDS011;36749;37.428;-121.972;2024-02-21T05:54:01;10.27;;;3.63;;
50781;SDS011;36749;37.428;-121.972;2024-02-21T05:56:27;9.00;;;3.33;;
50781;SDS011;36749;37.428;-121.972;2024-02-21T05:58:53;8.30;;;3.22;;
50781;SDS011;36749;37.428;-121.972;2024-02-21T06:01:19;8.35;;;3.25;;
50781;SDS011;36749;37.428;-121.972;2024-02-21T06:03:49;7.20;;;3.50;;
50781;SDS011;36749;37.428;-121.972;2024-02-21T06:06:15;10.68;;;3.88;;
50781;SDS011;36749;37.428;-121.972;2024-02-21T06:08:41;10.43;;;4.22;;
50781;SDS011;36749;37.428;-121.972;2024-02-21T06:11:07;6.20;;;3.47;;
50781;SDS011;36749;37.428;-121.972;2024-02-21T06:13:37;7.05;;;3.90;;
50781;SDS011;36749;37.428;-121.972;2024-02-21T06:16:07;13.35;;;4.05;;
50781;SDS011;36749;37.428;-121.972;2024-02-21T06:18:35;9.00;;;3.67;;
50781;SDS011;36749;37.428;-121.972;2024-02-21T06:21:02;8.98;;;3.95;;
50781;SDS011;36749;37.428;-121.972;2024-02-21T06:23:29;10.05;;;3.67;;
50781;SDS011;36749;37.428;-121.972;2024-02-21T06:25:55;9.40;;;3.63;;
50781;SDS011;36749;37.428;-121.972;2024-02-21T06:28:21;9.40;;;4.13;;
50781;SDS011;36749;37.428;-121.972;2024-02-21T06:30:47;9.70;;;3.63;;
50781;SDS011;36749;37.428;-121.972;2024-02-21T06:33:14;9.43;;;4.20;;
50781;SDS011;36749;37.428;-121.972;2024-02-21T06:35:40;7.53;;;3.10;;
50781;SDS011;36749;37.428;-121.972;2024-02-21T06:38:08;6.70;;;2.65;;
50781;SDS011;36749;37.428;-121.972;2024-02-21T06:40:34;8.45;;;3.15;;
50781;SDS011;36749;37.428;-121.972;2024-02-21T06:43:04;7.90;;;3.28;;
50781;SDS011;36749;37.428;-121.972;2024-02-21T06:45:31;7.22;;;2.70;;
50781;SDS011;36749;37.428;-121.972;2024-02-21T06:47:57;10.73;;;2.97;;
50781;SDS011;36749;37.428;-121.972;2024-02-21T06:50:23;9.50;;;3.22;;
50781;SDS011;36749;37.428;-121.972;2024-02-21T06:52:49;5.78;;;2.78;;
50781;SDS011;36749;37.428;-121.972;2024-02-21T06:55:15;7.03;;;3.00;;
50781;SDS011;36749;37.428;-121.972;2024-02-21T06:57:42;10.35;;;3.20;;
50781;SDS011;36749;37.428;-121.972;2024-02-21T07:00:08;6.55;;;2.60;;
50781;SDS011;36749;37.428;-121.972;2024-02-21T07:02:35;7.97;;;2.78;;
50781;SDS011;36749;37.428;-121.972;2024-02-21T07:05:01;6.68;;;2.53;;
50781;SDS011;36749;37.428;-121.972;2024-02-21T07:07:27;5.28;;;2.72;;
50781;SDS011;36749;37.428;-121.972;2024-02-21T07:09:55;11.20;;;3.28;;
50781;SDS011;36749;37.428;-121.972;2024-02-21T07:12:21;7.03;;;3.17;;
50781;SDS011;36749;37.428;-121.972;2024-02-21T07:14:47;6.40;;;2.97;;
50781;SDS011;36749;37.428;-121.972;2024-02-21T07:17:13;6.65;;;2.63;;
50781;SDS011;36749;37.428;-121.972;2024-02-21T07:19:39;14.52;;;3.80;;
50781;SDS011;36749;37.428;-121.972;2024-02-21T07:22:06;9.13;;;3.17;;
50781;SDS011;36749;37.428;-121.972;2024-02-21T07:24:32;10.27;;;3.17;;
50781;SDS011;36749;37.428;-121.972;2024-02-21T07:26:58;12.25;;;3.75;;
50781;SDS011;36749;37.428;-121.972;2024-02-21T07:29:29;9.10;;;3.40;;
50781;SDS011;36749;37.428;-121.972;2024-02-21T07:31:56;9.57;;;3.22;;
50781;SDS011;36749;37.428;-121.972;2024-02-21T07:34:22;10.13;;;3.30;;
50781;SDS011;36749;37.428;-121.972;2024-02-21T07:37:09;8.52;;;3.10;;
50781;SDS011;36749;37.428;-121.972;2024-02-21T07:39:38;9.60;;;3.40;;
50781;SDS011;36749;37.428;-121.972;2024-02-21T07:42:04;9.90;;;4.07;;
50781;SDS011;36749;37.428;-121.972;2024-02-21T07:44:31;10.15;;;4.32;;
50781;SDS011;36749;37.428;-121.972;2024-02-21T07:46:58;14.90;;;4.00;;
50781;SDS011;36749;37.428;-121.972;2024-02-21T07:49:24;12.75;;;4.05;;
50781;SDS011;36749;37.428;-121.972;2024-02-21T07:51:50;9.70;;;3.85;;
50781;SDS011;36749;37.428;-121.972;2024-02-21T07:54:18;13.20;;;4.65;;
50781;SDS011;36749;37.428;-121.972;2024-02-21T07:56:44;6.60;;;3.13;;
50781;SDS011;36749;37.428;-121.972;2024-02-21T07:59:10;5.43;;;3.15;;
50781;SDS011;36749;37.428;-121.972;2024-02-21T08:01:38;8.93;;;3.20;;
50781;SDS011;36749;37.428;-121.972;2024-02-21T08:04:04;11.52;;;3.90;;
50781;SDS011;36749;37.428;-121.972;2024-02-21T08:06:30;12.48;;;5.10;;
50781;SDS011;36749;37.428;-121.972;2024-02-21T08:08:57;15.85;;;4.45;;
50781;SDS011;36749;37.428;-121.972;2024-02-21T08:11:23;12.40;;;4.85;;
50781;SDS011;36749;37.428;-121.972;2024-02-21T08:13:49;9.70;;;4.10;;
50781;SDS011;36749;37.428;-121.972;2024-02-21T08:16:15;9.20;;;3.95;;
50781;SDS011;36749;37.428;-121.972;2024-02-21T08:18:43;8.52;;;3.95;;
50781;SDS011;36749;37.428;-121.972;2024-02-21T08:21:10;11.93;;;4.65;;
50781;SDS011;36749;37.428;-121.972;2024-02-21T08:23:36;13.02;;;4.70;;
50781;SDS011;36749;37.428;-121.972;2024-02-21T08:26:05;9.60;;;3.70;;
50781;SDS011;36749;37.428;-121.972;2024-02-21T08:28:31;8.77;;;4.20;;
50781;SDS011;36749;37.428;-121.972;2024-02-21T08:30:57;11.40;;;4.22;;
50781;SDS011;36749;37.428;-121.972;2024-02-21T08:33:23;13.70;;;4.22;;
50781;SDS011;36749;37.428;-121.972;2024-02-21T08:35:51;6.93;;;4.15;;
50781;SDS011;36749;37.428;-121.972;2024-02-21T08:38:17;10.02;;;3.92;;
50781;SDS011;36749;37.428;-121.972;2024-02-21T08:40:44;9.88;;;4.35;;
50781;SDS011;36749;37.428;-121.972;2024-02-21T08:43:10;12.25;;;4.50;;
50781;SDS011;36749;37.428;-121.972;2024-02-21T08:45:37;12.15;;;4.85;;
50781;SDS011;36749;37.428;-121.972;2024-02-21T08:48:03;18.42;;;5.68;;
50781;SDS011;36749;37.428;-121.972;2024-02-21T08:50:29;13.50;;;5.53;;
50781;SDS011;36749;37.428;-121.972;2024-02-21T08:52:56;11.68;;;5.78;;
50781;SDS011;36749;37.428;-121.972;2024-02-21T08:55:23;10.40;;;5.25;;
50781;SDS011;36749;37.428;-121.972;2024-02-21T08:57:49;13.80;;;5.53;;
50781;SDS011;36749;37.428;-121.972;2024-02-21T09:00:15;17.10;;;5.63;;
50781;SDS011;36749;37.428;-121.972;2024-02-21T09:02:42;16.33;;;5.72;;
50781;SDS011;36749;37.428;-121.972;2024-02-21T09:05:08;13.95;;;5.60;;
50781;SDS011;36749;37.428;-121.972;2024-02-21T09:07:35;13.90;;;4.60;;
50781;SDS011;36749;37.428;-121.972;2024-02-21T09:10:01;11.70;;;4.50;;
50781;SDS011;36749;37.428;-121.972;2024-02-21T09:12:28;10.52;;;4.15;;
50781;SDS011;36749;37.428;-121.972;2024-02-21T09:14:55;12.00;;;4.75;;
50781;SDS011;36749;37.428;-121.972;2024-02-21T09:17:21;10.32;;;4.70;;
50781;SDS011;36749;37.428;-121.972;2024-02-21T09:19:47;12.48;;;4.97;;
50781;SDS011;36749;37.428;-121.972;2024-02-21T09:22:13;9.38;;;4.15;;
50781;SDS011;36749;37.428;-121.972;2024-02-21T09:24:40;11.35;;;4.60;;
50781;SDS011;36749;37.428;-121.972;2024-02-21T09:27:06;10.90;;;4.50;;
50781;SDS011;36749;37.428;-121.972;2024-02-21T09:29:32;10.88;;;5.70;;
50781;SDS011;36749;37.428;-121.972;2024-02-21T09:32:01;13.60;;;5.15;;
50781;SDS011;36749;37.428;-121.972;2024-02-21T09:34:28;11.93;;;5.05;;
50781;SDS011;36749;37.428;-121.972;2024-02-21T09:36:55;11.27;;;4.65;;
50781;SDS011;36749;37.428;-121.972;2024-02-21T09:39:21;9.35;;;4.57;;
50781;SDS011;36749;37.428;-121.972;2024-02-21T09:41:50;8.65;;;4.15;;
50781;SDS011;36749;37.428;-121.972;2024-02-21T09:44:22;9.32;;;4.13;;
50781;SDS011;36749;37.428;-121.972;2024-02-21T09:47:03;12.73;;;4.88;;
50781;SDS011;36749;37.428;-121.972;2024-02-21T09:52:02;13.73;;;5.60;;
50781;SDS011;36749;37.428;-121.972;2024-02-21T09:54:34;10.68;;;5.38;;
50781;SDS011;36749;37.428;-121.972;2024-02-21T09:57:01;10.57;;;4.70;;
50781;SDS011;36749;37.428;-121.972;2024-02-21T09:59:28;12.77;;;5.03;;
50781;SDS011;36749;37.428;-121.972;2024-02-21T10:01:56;11.57;;;6.03;;
50781;SDS011;36749;37.428;-121.972;2024-02-21T10:04:25;13.57;;;5.53;;
50781;SDS011;36749;37.428;-121.972;2024-02-21T10:06:53;12.25;;;5.28;;
50781;SDS011;36749;37.428;-121.972;2024-02-21T10:09:20;10.75;;;5.50;;
50781;SDS011;36749;37.428;-121.972;2024-02-21T10:11:53;10.40;;;5.72;;
50781;SDS011;36749;37.428;-121.972;2024-02-21T10:14:19;12.40;;;5.32;;
50781;SDS011;36749;37.428;-121.972;2024-02-21T10:16:57;12.82;;;4.97;;
50781;SDS011;36749;37.428;-121.972;2024-02-21T10:19:27;16.27;;;5.07;;
50781;SDS011;36749;37.428;-121.972;2024-02-21T10:21:59;14.10;;;5.88;;
50781;SDS011;36749;37.428;-121.972;2024-02-21T10:24:29;14.38;;;4.95;;
50781;SDS011;36749;37.428;-121.972;2024-02-21T10:27:02;14.07;;;5.53;;
50781;SDS011;36749;37.428;-121.972;2024-02-21T10:29:32;12.80;;;5.53;;
50781;SDS011;36749;37.428;-121.972;2024-02-21T10:32:09;14.55;;;5.50;;
50781;SDS011;36749;37.428;-121.972;2024-02-21T10:34:39;8.52;;;4.72;;
50781;SDS011;36749;37.428;-121.972;2024-02-21T10:37:07;14.65;;;5.15;;
50781;SDS011;36749;37.428;-121.972;2024-02-21T10:39:34;12.10;;;6.28;;
50781;SDS011;36749;37.428;-121.972;2024-02-21T10:42:04;11.30;;;5.18;;
50781;SDS011;36749;37.428;-121.972;2024-02-21T10:44:34;14.05;;;5.20;;
50781;SDS011;36749;37.428;-121.972;2024-02-21T10:47:14;13.52;;;5.80;;
50781;SDS011;36749;37.428;-121.972;2024-02-21T10:49:48;17.33;;;6.55;;
50781;SDS011;36749;37.428;-121.972;2024-02-21T10:55:03;12.60;;;6.32;;
50781;SDS011;36749;37.428;-121.972;2024-02-21T10:57:32;13.88;;;5.82;;
50781;SDS011;36749;37.428;-121.972;2024-02-21T10:59:58;12.20;;;5.90;;
50781;SDS011;36749;37.428;-121.972;2024-02-21T11:02:25;12.65;;;5.80;;
50781;SDS011;36749;37.428;-121.972;2024-02-21T11:04:53;13.57;;;6.30;;
50781;SDS011;36749;37.428;-121.972;2024-02-21T11:07:20;14.73;;;6.35;;
50781;SDS011;36749;37.428;-121.972;2024-02-21T11:09:50;11.27;;;5.82;;
50781;SDS011;36749;37.428;-121.972;2024-02-21T11:12:20;15.93;;;6.60;;
50781;SDS011;36749;37.428;-121.972;2024-02-21T11:14:47;15.68;;;5.97;;
50781;SDS011;36749;37.428;-121.972;2024-02-21T11:17:17;13.63;;;6.07;;
50781;SDS011;36749;37.428;-121.972;2024-02-21T11:19:44;13.40;;;6.38;;
50781;SDS011;36749;37.428;-121.972;2024-02-21T11:22:19;16.60;;;6.53;;
50781;SDS011;36749;37.428;-121.972;2024-02-21T11:24:48;13.63;;;5.90;;
50781;SDS011;36749;37.428;-121.972;2024-02-21T11:27:21;14.13;;;6.75;;
50781;SDS011;36749;37.428;-121.972;2024-02-21T11:29:54;12.27;;;6.43;;
50781;SDS011;36749;37.428;-121.972;2024-02-21T11:32:21;17.90;;;6.55;;
50781;SDS011;36749;37.428;-121.972;2024-02-21T11:35:01;15.35;;;6.13;;
50781;SDS011;36749;37.428;-121.972;2024-02-21T11:37:31;14.98;;;6.43;;
50781;SDS011;36749;37.428;-121.972;2024-02-21T11:40:08;12.38;;;5.45;;
50781;SDS011;36749;37.428;-121.972;2024-02-21T11:42:35;12.98;;;5.80;;
50781;SDS011;36749;37.428;-121.972;2024-02-21T11:45:01;11.23;;;5.93;;
50781;SDS011;36749;37.428;-121.972;2024-02-21T11:47:30;12.65;;;6.85;;
50781;SDS011;36749;37.428;-121.972;2024-02-21T11:49:57;11.95;;;5.22;;
50781;SDS011;36749;37.428;-121.972;2024-02-21T11:52:44;12.82;;;5.47;;
50781;SDS011;36749;37.428;-121.972;2024-02-21T11:55:11;10.82;;;5.47;;
50781;SDS011;36749;37.428;-121.972;2024-02-21T11:57:37;12.50;;;6.50;;
50781;SDS011;36749;37.428;-121.972;2024-02-21T12:00:14;15.05;;;6.82;;
50781;SDS011;36749;37.428;-121.972;2024-02-21T12:02:45;11.98;;;5.53;;
50781;SDS011;36749;37.428;-121.972;2024-02-21T12:05:11;11.15;;;5.38;;
50781;SDS011;36749;37.428;-121.972;2024-02-21T12:07:38;10.20;;;6.03;;
50781;SDS011;36749;37.428;-121.972;2024-02-21T12:10:12;12.88;;;6.57;;
50781;SDS011;36749;37.428;-121.972;2024-02-21T12:12:38;11.98;;;6.05;;
50781;SDS011;36749;37.428;-121.972;2024-02-21T12:15:05;12.90;;;5.60;;
50781;SDS011;36749;37.428;-121.972;2024-02-21T12:17:35;13.05;;;5.88;;
50781;SDS011;36749;37.428;-121.972;2024-02-21T12:20:02;13.70;;;6.38;;
50781;SDS011;36749;37.428;-121.972;2024-02-21T12:22:37;13.93;;;6.10;;
50781;SDS011;36749;37.428;-121.972;2024-02-21T12:25:18;14.45;;;6.03;;
50781;SDS011;36749;37.428;-121.972;2024-02-21T12:27:48;16.02;;;6.25;;
50781;SDS011;36749;37.428;-121.972;2024-02-21T12:30:15;14.30;;;6.05;;
50781;SDS011;36749;37.428;-121.972;2024-02-21T12:32:41;15.40;;;6.30;;
50781;SDS011;36749;37.428;-121.972;2024-02-21T12:35:08;13.02;;;6.00;;
50781;SDS011;36749;37.428;-121.972;2024-02-21T12:37:34;13.30;;;6.30;;
50781;SDS011;36749;37.428;-121.972;2024-02-21T12:40:00;14.55;;;6.30;;
50781;SDS011;36749;37.428;-121.972;2024-02-21T12:42:32;9.23;;;5.47;;
50781;SDS011;36749;37.428;-121.972;2024-02-21T12:44:59;14.20;;;6.25;;
50781;SDS011;36749;37.428;-121.972;2024-02-21T12:47:25;14.82;;;6.35;;
50781;SDS011;36749;37.428;-121.972;2024-02-21T12:49:52;13.93;;;6.57;;
50781;SDS011;36749;37.428;-121.972;2024-02-21T12:52:19;14.38;;;6.63;;
50781;SDS011;36749;37.428;-121.972;2024-02-21T12:54:45;11.05;;;5.95;;
50781;SDS011;36749;37.428;-121.972;2024-02-21T12:57:11;11.10;;;5.82;;
50781;SDS011;36749;37.428;-121.972;2024-02-21T12:59:37;10.98;;;5.75;;
50781;SDS011;36749;37.428;-121.972;2024-02-21T13:02:04;10.40;;;5.80;;
50781;SDS011;36749;37.428;-121.972;2024-02-21T13:04:31;10.90;;;5.43;;
50781;SDS011;36749;37.428;-121.972;2024-02-21T13:06:57;11.55;;;6.07;;
50781;SDS011;36749;37.428;-121.972;2024-02-21T13:09:23;13.40;;;6.78;;
50781;SDS011;36749;37.428;-121.972;2024-02-21T13:11:50;13.15;;;6.80;;
50781;SDS011;36749;37.428;-121.972;2024-02-21T13:14:16;12.73;;;6.57;;
50781;SDS011;36749;37.428;-121.972;2024-02-21T13:16:42;13.38;;;6.15;;
50781;SDS011;36749;37.428;-121.972;2024-02-21T13:19:09;15.80;;;7.22;;
50781;SDS011;36749;37.428;-121.972;2024-02-21T13:21:35;11.73;;;6.47;;
50781;SDS011;36749;37.428;-121.972;2024-02-21T13:24:02;13.15;;;6.95;;
50781;SDS011;36749;37.428;-121.972;2024-02-21T13:26:28;11.70;;;6.80;;
50781;SDS011;36749;37.428;-121.972;2024-02-21T13:28:55;11.48;;;6.05;;
50781;SDS011;36749;37.428;-121.972;2024-02-21T13:31:21;12.23;;;6.10;;
50781;SDS011;36749;37.428;-121.972;2024-02-21T13:33:47;12.82;;;6.63;;
50781;SDS011;36749;37.428;-121.972;2024-02-21T13:36:14;12.77;;;6.38;;
50781;SDS011;36749;37.428;-121.972;2024-02-21T13:38:40;16.58;;;7.13;;
50781;SDS011;36749;37.428;-121.972;2024-02-21T13:41:06;13.23;;;6.85;;
50781;SDS011;36749;37.428;-121.972;2024-02-21T13:43:33;11.10;;;6.90;;
50781;SDS011;36749;37.428;-121.972;2024-02-21T13:46:00;10.63;;;6.78;;
50781;SDS011;36749;37.428;-121.972;2024-02-21T13:48:35;10.10;;;5.82;;
50781;SDS011;36749;37.428;-121.972;2024-02-21T13:51:01;10.25;;;6.80;;
50781;SDS011;36749;37.428;-121.972;2024-02-21T13:53:28;9.40;;;6.03;;
50781;SDS011;36749;37.428;-121.972;2024-02-21T13:55:54;11.75;;;6.13;;
50781;SDS011;36749;37.428;-121.972;2024-02-21T13:58:20;10.57;;;5.85;;
50781;SDS011;36749;37.428;-121.972;2024-02-21T14:00:47;13.30;;;5.97;;
50781;SDS011;36749;37.428;-121.972;2024-02-21T14:03:13;10.98;;;5.25;;
50781;SDS011;36749;37.428;-121.972;2024-02-21T14:05:39;11.95;;;5.97;;
50781;SDS011;36749;37.428;-121.972;2024-02-21T14:08:06;15.45;;;5.38;;
50781;SDS011;36749;37.428;-121.972;2024-02-21T14:10:32;15.20;;;6.00;;